Farafra, Egypt
Current Conditions -  °F | °C
As of 6:00 PM on Thursday 18 Dec 2014 (Local Time) from HESG Reporting Station
Clear Clear  
Wind Chill: 70°   Ceiling: Unl
Heat Index: 70°   Visibility: 6mi
Dew Point: 54°   Wind: 6mph
Humidity: 56%   Direction: 300°WNW
Pressure: 30"   Gusts: NA
Location:  27.05°N, 27.47°E
Report Text: HESG 181600Z 30005KT CAVOK 21/12 Q1016 NOSIG
Loading
Personal Weather Stations






























Interactive Weather Map New forecast layout! Learn more

10-Day Weather Forecast

Advertisements
Track Severe Weather on mobile